Jacksonville, FL (32230)

2:40 AM EDT on October 21, 2014 (GMT -0400)
Leeward Landing @ Neptune Beach | Change Station
CLOSE
Current Station
Personal Weather Station
Location: Neptune Beach, FL
Elevation: 4 m
Nearby Weather Stations

Elev 4 m 30.32 °N, 81.41 °W | Updated 4 seconds ago

Partly Cloudy
Partly Cloudy
20.4 °C
Feels Like 20.4 °C
N
0.0
Wind Variable Wind from SSE
Gusts 0.0 km/h

Today
High -- | Low -- °C
--% Chance of Precip.
Yesterday
High -- | Low -- °C
Precip. -- mm
7:31 AM 6:48 PM
Waning Crescent, 7% visible
Pressure 1015 hPa
Visibility 16.1 kilometers
Clouds Clear
Dew Point 19 °C
Humidity 91%
Rainfall 0 mm
Snow Depth Not available.
UV 0 out of 12
Pollen 5.30 out of 12
Ozone Good
PM2.5 Good
Flu Activity Local Activity
METAR KNRB 210552Z AUTO 27003KT 10SM CLR 22/20 A2996 RMK AO2 SLP146 T02170200 10244 20206 56008

More Conditions Fewer Conditions

Pressure 1015 hPa
Visibility 16.1 kilometers
Clouds Clear
Dew Point 19 °C
Humidity 91%
Rainfall 0 mm
Snow Depth Not available.
UV 0 out of 12
Pollen 5.30 out of 12
Ozone Good
PM2.5 Good
Flu Activity Local Activity
METAR KNRB 210552Z AUTO 27003KT 10SM CLR 22/20 A2996 RMK AO2 SLP146 T02170200 10244 20206 56008

More Conditions Fewer Conditions

10-Day Weather Forecast

Almanac

Astronomy

Oct. 21, 2014 Rise Set
Actual Time 7:31 AM EDT 6:48 PM EDT
Civil Twilight 7:07 AM EDT 7:12 PM EDT
Nautical Twilight 6:39 AM EDT 7:40 PM EDT
Astronomical Twilight 6:11 AM EDT 8:08 PM EDT
Moon 5:24 AM EDT 5:34 PM EDT
Length of Visible Light 12h 05m
Length of Day
11h 16m
Tomorrow will be 1m 43s shorter.
Waning Crescent, 7% of the Moon is Illuminated
Today
Waning Crescent
Oct 23
New
Oct 30
First Quarter
Nov 6
Full
Nov 14
Last Quarter

Today's Extremes

State Highs State Lows

Community

WunderPhotos

Upload Photos

1,763,617 photos uploaded!

Nearby

Air Quality

  Air Quality AQ Index Pollutant
Yesterday Good
OZONE
Yesterday Good
PM2.5
Current Good
PM2.5
Current Good
OZONE
Tuesday Good
OZONE
Tuesday Good
PM2.5

Snow Depth

Station Depth Elevation
No new snow has been reported.

Earthquake Activity

City Distance Mag. Time & Date
No recent earthquake activity has been reported nearby.
Minimum magnitude displayed is 2.5.

Coastal Water Temperatures

Place Temperature
Mayport (Bar Pilots Dock), FL 24.4 °C
Fernandina Beach, FL 23.9 °C

Nearby Weather Stations